createdAt,value
2022-09-29T00:02:00.342Z,10.40
2022-09-29T00:04:02.127Z,10.80
2022-09-29T00:06:04.012Z,10.00
2022-09-29T00:08:05.677Z,10.67
2022-09-29T00:10:07.480Z,10.20
2022-09-29T00:12:09.057Z,10.30
2022-09-29T00:14:10.681Z,11.03
2022-09-29T00:16:13.052Z,9.57
2022-09-29T00:18:15.102Z,10.70
2022-09-29T00:20:17.176Z,11.23
2022-09-29T00:22:18.767Z,10.97
2022-09-29T00:24:20.410Z,10.97
2022-09-29T00:26:24.850Z,10.23
2022-09-29T00:28:26.557Z,10.97
2022-09-29T00:30:28.221Z,10.37
2022-09-29T00:32:29.872Z,9.87
2022-09-29T00:34:31.451Z,10.17
2022-09-29T00:36:33.051Z,9.90
2022-09-29T00:38:35.262Z,9.27
2022-09-29T00:40:36.889Z,9.67
2022-09-29T00:42:38.631Z,9.53
2022-09-29T00:45:04.825Z,9.53
2022-09-29T00:47:06.677Z,8.90
2022-09-29T00:49:15.167Z,9.33
2022-09-29T00:51:19.484Z,9.53
2022-09-29T00:53:23.595Z,9.40
2022-09-29T00:55:39.472Z,10.03
2022-09-29T00:57:47.124Z,9.87
2022-09-29T01:00:00.282Z,10.53
2022-09-29T01:02:02.019Z,9.97
2022-09-29T01:04:14.430Z,9.53
2022-09-29T01:06:37.383Z,10.07
2022-09-29T01:08:48.177Z,9.00
2022-09-29T01:10:51.593Z,9.03
2022-09-29T01:12:53.255Z,9.67
2022-09-29T01:14:55.295Z,10.80
2022-09-29T01:16:57.175Z,10.53
2022-09-29T01:19:00.902Z,10.57
2022-09-29T01:21:52.217Z,10.40
2022-09-29T01:24:15.608Z,10.87
2022-09-29T01:26:47.872Z,11.07
2022-09-29T01:29:28.392Z,11.30
2022-09-29T01:32:02.310Z,11.33
2022-09-29T01:34:13.821Z,11.20
2022-09-29T01:36:30.155Z,11.83
2022-09-29T01:39:05.308Z,12.03
2022-09-29T01:41:15.276Z,12.07
2022-09-29T01:43:18.915Z,13.10
2022-09-29T01:45:36.859Z,12.67
2022-09-29T01:47:52.478Z,12.90
2022-09-29T01:50:00.401Z,12.33
2022-09-29T01:52:08.906Z,13.60
2022-09-29T01:54:17.832Z,12.47
2022-09-29T01:56:28.296Z,13.83
2022-09-29T01:58:40.264Z,14.63
2022-09-29T02:00:49.341Z,14.63
2022-09-29T02:02:53.845Z,14.17
2022-09-29T02:05:01.699Z,14.17
2022-09-29T02:07:09.007Z,14.27
2022-09-29T02:09:15.400Z,12.67
2022-09-29T02:11:17.776Z,14.37
2022-09-29T02:13:21.551Z,13.37
2022-09-29T02:15:29.081Z,12.77
2022-09-29T02:17:34.803Z,13.27
2022-09-29T02:19:40.387Z,12.53
2022-09-29T02:21:44.046Z,11.70
2022-09-29T02:23:45.760Z,11.77
2022-09-29T02:25:50.343Z,11.53
2022-09-29T02:27:52.226Z,13.47
2022-09-29T02:29:54.227Z,12.50
2022-09-29T02:31:59.373Z,12.77
2022-09-29T02:34:02.977Z,11.63
2022-09-29T02:36:16.735Z,11.20
2022-09-29T02:38:35.754Z,10.10
2022-09-29T02:40:57.342Z,10.20
2022-09-29T02:43:07.892Z,10.57
2022-09-29T02:45:37.739Z,11.07
2022-09-29T02:48:08.597Z,10.37
2022-09-29T02:50:52.768Z,10.67
2022-09-29T02:52:54.394Z,10.23
2022-09-29T02:55:09.607Z,11.37
2022-09-29T02:57:24.331Z,10.50
2022-09-29T02:59:40.299Z,10.90
2022-09-29T03:01:53.494Z,10.30
2022-09-29T03:03:55.141Z,10.63
2022-09-29T03:05:57.093Z,10.30
2022-09-29T03:07:58.704Z,12.50
2022-09-29T03:10:00.325Z,12.37
2022-09-29T03:12:02.275Z,14.10
2022-09-29T03:14:04.374Z,11.57
2022-09-29T03:16:06.076Z,11.60
2022-09-29T03:18:10.175Z,12.23
2022-09-29T03:20:12.089Z,12.03
2022-09-29T03:22:14.218Z,11.77
2022-09-29T03:24:15.842Z,11.43
2022-09-29T03:26:17.656Z,10.33
2022-09-29T03:28:19.373Z,10.60
2022-09-29T03:30:22.848Z,11.70
2022-09-29T03:32:24.537Z,10.57
2022-09-29T03:34:26.948Z,10.60
2022-09-29T03:36:28.586Z,9.93
2022-09-29T03:38:30.166Z,9.57
2022-09-29T03:40:31.795Z,9.67
2022-09-29T03:42:33.478Z,9.87
2022-09-29T03:44:35.068Z,10.97
2022-09-29T03:46:36.671Z,11.63
2022-09-29T03:48:39.287Z,11.97
2022-09-29T03:50:40.891Z,12.70
2022-09-29T03:52:42.609Z,12.63
2022-09-29T03:54:44.186Z,13.53
2022-09-29T03:56:45.785Z,12.27
2022-09-29T03:58:50.172Z,12.33
2022-09-29T04:00:52.244Z,11.30
2022-09-29T04:02:56.944Z,12.33
2022-09-29T04:04:58.571Z,13.07
2022-09-29T04:07:00.138Z,12.37
2022-09-29T04:09:02.076Z,13.87
2022-09-29T04:11:04.900Z,12.17
2022-09-29T04:13:07.438Z,11.73
2022-09-29T04:15:09.423Z,11.10
2022-09-29T04:17:11.046Z,10.90
2022-09-29T04:19:12.643Z,9.23
2022-09-29T04:21:14.399Z,9.77
2022-09-29T04:23:16.066Z,10.27
2022-09-29T04:25:17.727Z,9.93
2022-09-29T04:27:19.425Z,9.57
2022-09-29T04:29:21.116Z,9.60
2022-09-29T04:31:22.764Z,9.67
2022-09-29T04:33:24.398Z,10.00
2022-09-29T04:35:26.180Z,9.27
2022-09-29T04:37:28.201Z,8.90
2022-09-29T04:39:29.821Z,8.83
2022-09-29T04:41:34.928Z,9.00
2022-09-29T04:43:36.497Z,10.03
2022-09-29T04:45:38.138Z,13.90
2022-09-29T04:47:39.866Z,14.47
2022-09-29T04:49:41.518Z,13.50
2022-09-29T04:51:43.452Z,12.60
2022-09-29T04:53:45.062Z,21.13
2022-09-29T04:55:46.632Z,20.30
2022-09-29T04:57:49.191Z,15.67
2022-09-29T05:02:19.490Z,13.70
2022-09-29T05:04:21.371Z,14.77
2022-09-29T05:06:23.204Z,15.47
2022-09-29T05:08:24.756Z,15.03
2022-09-29T05:10:26.563Z,14.63
2022-09-29T05:12:28.146Z,15.20
2022-09-29T05:14:29.718Z,12.93
2022-09-29T05:16:31.756Z,13.20
2022-09-29T05:18:34.015Z,12.43
2022-09-29T05:20:42.358Z,12.57
2022-09-29T05:22:48.735Z,12.50
2022-09-29T05:24:52.240Z,13.03
2022-09-29T05:26:58.325Z,12.47
2022-09-29T05:29:00.276Z,12.60
2022-09-29T05:31:07.541Z,12.30
2022-09-29T05:33:09.202Z,12.87
2022-09-29T05:35:10.752Z,13.27
2022-09-29T05:37:12.759Z,12.27
2022-09-29T05:39:14.372Z,12.40
2022-09-29T05:41:22.530Z,13.57
2022-09-29T05:43:24.134Z,13.87
2022-09-29T05:45:25.653Z,13.07
2022-09-29T05:47:27.297Z,13.23
2022-09-29T05:49:30.919Z,12.33
2022-09-29T05:51:32.428Z,12.73
2022-09-29T05:53:34.007Z,13.23
2022-09-29T05:55:39.029Z,12.70
2022-09-29T05:57:40.652Z,11.50
2022-09-29T05:59:42.200Z,10.67
2022-09-29T06:01:43.828Z,11.43
2022-09-29T06:03:45.960Z,10.97
2022-09-29T06:05:47.549Z,12.30
2022-09-29T06:07:49.265Z,13.10
2022-09-29T06:09:50.800Z,13.00
2022-09-29T06:11:52.435Z,12.63
2022-09-29T06:13:54.568Z,12.60
2022-09-29T06:15:58.983Z,16.13
2022-09-29T06:18:01.259Z,12.47
2022-09-29T06:20:04.211Z,15.70
2022-09-29T06:22:05.741Z,13.37
2022-09-29T06:24:07.453Z,15.90
2022-09-29T06:26:14.520Z,14.13
2022-09-29T06:28:16.114Z,11.73
2022-09-29T06:30:17.889Z,11.00
2022-09-29T06:32:19.841Z,10.70
2022-09-29T06:34:21.376Z,9.87
2022-09-29T06:36:44.255Z,10.60
2022-09-29T06:38:47.786Z,10.13
2022-09-29T06:40:49.448Z,9.33
2022-09-29T06:42:51.531Z,12.07
2022-09-29T06:44:53.270Z,11.73
2022-09-29T06:46:55.403Z,15.67
2022-09-29T06:48:57.484Z,12.70
2022-09-29T06:51:09.556Z,13.03
2022-09-29T06:53:11.961Z,11.67
2022-09-29T06:55:13.760Z,12.53
2022-09-29T06:57:15.343Z,12.03
2022-09-29T06:59:17.612Z,12.50
2022-09-29T07:01:19.433Z,11.47
2022-09-29T07:03:22.062Z,11.80
2022-09-29T07:05:23.841Z,12.83
2022-09-29T07:07:25.550Z,11.90
2022-09-29T07:09:27.220Z,11.93
2022-09-29T07:11:29.123Z,12.13
2022-09-29T07:13:30.863Z,12.10
2022-09-29T07:15:32.648Z,12.50
2022-09-29T07:17:34.284Z,11.83
2022-09-29T07:19:36.046Z,13.67
2022-09-29T07:21:37.625Z,14.37
2022-09-29T07:23:39.638Z,15.97
2022-09-29T07:25:51.642Z,16.10
2022-09-29T07:27:53.783Z,14.97
2022-09-29T07:30:03.065Z,16.53
2022-09-29T07:32:06.462Z,16.13
2022-09-29T07:34:08.922Z,16.73
2022-09-29T07:36:10.843Z,15.80
2022-09-29T07:38:12.416Z,15.60
2022-09-29T07:40:14.265Z,14.40
2022-09-29T07:42:18.206Z,14.20
2022-09-29T07:44:19.915Z,13.90
2022-09-29T07:46:22.229Z,12.77
2022-09-29T07:48:27.888Z,12.97
2022-09-29T07:50:32.224Z,12.93
2022-09-29T07:52:33.839Z,12.00
2022-09-29T07:54:35.715Z,11.60
2022-09-29T07:56:37.540Z,11.97
2022-09-29T07:58:39.650Z,12.00
2022-09-29T08:00:41.318Z,11.50
2022-09-29T08:02:43.800Z,12.33
2022-09-29T08:04:45.433Z,11.50
2022-09-29T08:06:47.736Z,12.63
2022-09-29T08:09:01.590Z,12.77
2022-09-29T08:11:18.857Z,12.43
2022-09-29T08:13:21.505Z,12.90
2022-09-29T08:15:24.027Z,13.03
2022-09-29T08:17:25.664Z,15.53
2022-09-29T08:19:28.727Z,13.77
2022-09-29T08:21:32.028Z,13.63
2022-09-29T08:23:40.362Z,14.83
2022-09-29T08:25:43.374Z,15.03
2022-09-29T08:27:54.314Z,15.20
2022-09-29T08:29:58.621Z,14.60
2022-09-29T08:32:00.421Z,14.10
2022-09-29T18:07:16.210Z,2.43
2022-09-29T18:09:18.715Z,2.60
2022-09-29T18:11:22.754Z,3.40
2022-09-29T18:13:31.337Z,2.10
2022-09-29T18:15:33.376Z,2.07
2022-09-29T18:17:35.149Z,2.20
2022-09-29T18:19:40.206Z,2.30
2022-09-29T18:21:41.939Z,2.43
2022-09-29T18:23:44.355Z,2.20
2022-09-29T18:25:48.361Z,2.47
2022-09-29T18:27:50.513Z,2.10
2022-09-29T18:29:53.478Z,1.90
2022-09-29T18:31:55.478Z,2.17
2022-09-29T18:33:57.181Z,1.80
2022-09-29T18:36:00.354Z,1.73
2022-09-29T18:38:02.645Z,1.80
2022-09-29T18:40:04.587Z,1.80
2022-09-29T18:42:06.335Z,2.10
2022-09-29T18:44:16.302Z,1.80
2022-09-29T18:46:18.233Z,1.70
2022-09-29T18:48:20.043Z,1.83
2022-09-29T18:50:30.033Z,2.00
2022-09-29T18:52:31.680Z,2.67
2022-09-29T18:54:33.525Z,2.30
2022-09-29T18:56:35.405Z,2.30
2022-09-29T18:58:37.278Z,2.00
2022-09-29T19:00:41.147Z,2.30
2022-09-29T19:02:43.994Z,2.90
2022-09-29T19:04:46.588Z,2.10
2022-09-29T19:06:50.374Z,2.30
2022-09-29T19:08:52.308Z,2.30
2022-09-29T19:10:58.479Z,2.10
2022-09-29T19:13:08.293Z,1.93
2022-09-29T19:15:10.168Z,2.20
2022-09-29T19:17:12.191Z,3.97
2022-09-29T19:19:13.900Z,2.33
2022-09-29T19:21:16.020Z,2.00
2022-09-29T19:23:20.914Z,3.43
2022-09-29T19:25:25.615Z,2.87
2022-09-29T19:27:27.360Z,2.10
2022-09-29T19:29:29.103Z,2.10
2022-09-29T19:31:30.777Z,2.20
2022-09-29T19:33:32.436Z,2.13
2022-09-29T19:35:34.586Z,2.17
2022-09-29T19:37:36.649Z,2.10
2022-09-29T19:39:38.307Z,2.47
2022-09-29T19:41:40.096Z,2.13
2022-09-29T19:43:42.205Z,2.37
2022-09-29T19:45:44.838Z,2.23
2022-09-29T19:47:47.018Z,2.50
2022-09-29T19:49:48.784Z,2.30
2022-09-29T19:51:52.606Z,2.43
2022-09-29T19:54:10.749Z,2.40
2022-09-29T19:56:13.954Z,2.20
2022-09-29T19:58:16.520Z,2.53
2022-09-29T20:00:21.172Z,2.40
2022-09-29T20:02:22.877Z,2.60
2022-09-29T20:04:30.158Z,3.53
2022-09-29T20:06:36.095Z,3.50
2022-09-29T20:08:37.863Z,5.17
2022-09-29T20:10:42.027Z,4.80
2022-09-29T20:12:44.328Z,4.37
2022-09-29T20:14:45.967Z,4.03
2022-09-29T20:16:47.656Z,4.60
2022-09-29T20:18:49.420Z,3.47
2022-09-29T20:20:52.417Z,3.23
2022-09-29T20:22:54.220Z,3.23
2022-09-29T20:24:56.208Z,3.47
2022-09-29T20:26:58.075Z,3.60
2022-09-29T20:29:04.145Z,3.07
2022-09-29T20:31:07.732Z,2.77
2022-09-29T20:33:09.594Z,4.30
2022-09-29T20:35:11.264Z,4.37
2022-09-29T20:37:14.703Z,3.90
2022-09-29T20:39:19.858Z,4.30
2022-09-29T20:41:21.610Z,4.10
2022-09-29T20:43:23.340Z,3.73
2022-09-29T20:45:24.989Z,5.03
2022-09-29T20:47:26.635Z,3.80
2022-09-29T20:49:28.758Z,3.53
2022-09-29T20:51:36.013Z,3.00
2022-09-29T20:53:40.675Z,3.10
2022-09-29T20:55:42.266Z,3.40
2022-09-29T20:57:46.435Z,3.30
2022-09-29T20:59:48.395Z,3.23
2022-09-29T21:01:52.343Z,3.13
2022-09-29T21:04:10.651Z,2.80
2022-09-29T21:06:13.359Z,3.20
2022-09-29T21:08:14.943Z,2.80
2022-09-29T21:10:16.625Z,3.13
2022-09-29T21:12:18.503Z,2.63
2022-09-29T21:14:24.221Z,3.40
2022-09-29T21:16:26.317Z,2.97
2022-09-29T21:18:29.688Z,2.87
2022-09-29T21:20:31.313Z,2.73
2022-09-29T21:22:32.953Z,3.53
2022-09-29T21:24:39.068Z,2.93
2022-09-29T21:26:41.237Z,3.03
2022-09-29T21:28:49.338Z,2.97
2022-09-29T21:31:00.741Z,2.93
2022-09-29T21:33:02.487Z,2.90
2022-09-29T21:35:04.342Z,3.10
2022-09-29T21:37:05.949Z,3.57
2022-09-29T21:39:09.069Z,2.80
2022-09-29T21:41:26.191Z,2.90
2022-09-29T21:43:27.882Z,3.23
2022-09-29T21:45:30.571Z,3.10
2022-09-29T21:47:50.645Z,3.60
2022-09-29T21:49:53.368Z,3.60
2022-09-29T21:51:57.919Z,3.90
2022-09-29T21:54:02.986Z,3.80
2022-09-29T21:56:11.484Z,4.30
2022-09-29T21:58:13.127Z,3.83
2022-09-29T22:00:14.924Z,3.90
2022-09-29T22:02:16.817Z,4.07
2022-09-29T22:04:18.740Z,3.90
2022-09-29T22:06:23.263Z,3.90
2022-09-29T22:08:26.016Z,4.10
2022-09-29T22:10:27.793Z,4.30
2022-09-29T22:12:29.371Z,4.03
2022-09-29T22:14:31.099Z,3.73
2022-09-29T22:16:34.839Z,4.00
2022-09-29T22:18:41.561Z,4.17
2022-09-29T22:20:43.648Z,3.90
2022-09-29T22:22:45.623Z,3.80
2022-09-29T22:24:47.229Z,3.73
2022-09-29T22:26:48.928Z,4.13
2022-09-29T22:28:54.369Z,4.07
2022-09-29T22:31:06.130Z,4.40
2022-09-29T22:33:10.431Z,4.03
2022-09-29T22:35:12.051Z,3.90
2022-09-29T22:37:13.779Z,4.30
2022-09-29T22:39:15.401Z,4.50
2022-09-29T22:41:18.491Z,4.10
2022-09-29T22:43:20.557Z,4.00
2022-09-29T22:45:22.266Z,4.07
2022-09-29T22:47:23.867Z,4.00
2022-09-29T22:49:25.449Z,4.30
2022-09-29T22:51:28.528Z,4.30
2022-09-29T22:53:30.199Z,4.33
2022-09-29T22:55:33.556Z,3.90
2022-09-29T22:57:35.234Z,4.47
2022-09-29T22:59:36.850Z,4.27
2022-09-29T23:01:38.472Z,4.23
2022-09-29T23:03:42.032Z,4.67
2022-09-29T23:05:44.277Z,4.83
2022-09-29T23:07:46.041Z,4.93
2022-09-29T23:09:47.757Z,5.20
2022-09-29T23:11:49.412Z,4.93
2022-09-29T23:13:52.960Z,5.00
2022-09-29T23:15:54.691Z,5.00
2022-09-29T23:17:56.459Z,4.87
2022-09-29T23:19:58.066Z,5.23
2022-09-29T23:21:59.917Z,5.23
2022-09-29T23:24:01.880Z,5.13
2022-09-29T23:26:03.648Z,5.10
2022-09-29T23:28:06.290Z,6.20
2022-09-29T23:30:08.502Z,5.80
2022-09-29T23:32:10.096Z,5.43
2022-09-29T23:34:12.823Z,5.80
2022-09-29T23:36:15.555Z,5.93
2022-09-29T23:38:35.522Z,5.20
2022-09-29T23:40:37.159Z,5.83
2022-09-29T23:42:38.801Z,5.90
2022-09-29T23:44:41.000Z,5.33
2022-09-29T23:46:43.789Z,5.60
2022-09-29T23:48:45.574Z,5.60
2022-09-29T23:50:47.217Z,5.80
2022-09-29T23:52:48.888Z,5.97
2022-09-29T23:54:50.617Z,6.57
2022-09-29T23:56:54.277Z,6.77
2022-09-29T23:58:56.214Z,7.17
